sensor_id;sensor_type;location;lat;lon;timestamp;P1;durP1;ratioP1;P2;durP2;ratioP2
16800;SDS011;8518;53.236;10.384;2023-04-08T00:00:44;16.43;;;10.30;;
16800;SDS011;8518;53.236;10.384;2023-04-08T00:06:32;14.53;;;9.93;;
16800;SDS011;8518;53.236;10.384;2023-04-08T00:08:57;12.93;;;10.27;;
16800;SDS011;8518;53.236;10.384;2023-04-08T00:11:23;15.10;;;10.30;;
16800;SDS011;8518;53.236;10.384;2023-04-08T00:17:15;13.10;;;8.83;;
16800;SDS011;8518;53.236;10.384;2023-04-08T00:23:04;12.73;;;9.53;;
16800;SDS011;8518;53.236;10.384;2023-04-08T00:25:31;17.03;;;10.90;;
16800;SDS011;8518;53.236;10.384;2023-04-08T00:27:57;13.07;;;10.00;;
16800;SDS011;8518;53.236;10.384;2023-04-08T00:30:26;15.70;;;10.87;;
16800;SDS011;8518;53.236;10.384;2023-04-08T00:36:14;16.20;;;10.67;;
16800;SDS011;8518;53.236;10.384;2023-04-08T00:42:02;15.03;;;11.13;;
16800;SDS011;8518;53.236;10.384;2023-04-08T00:44:28;16.27;;;11.10;;
16800;SDS011;8518;53.236;10.384;2023-04-08T00:46:53;15.47;;;11.20;;
16800;SDS011;8518;53.236;10.384;2023-04-08T00:49:19;14.10;;;10.37;;
16800;SDS011;8518;53.236;10.384;2023-04-08T00:51:45;17.30;;;11.13;;
16800;SDS011;8518;53.236;10.384;2023-04-08T00:54:11;16.53;;;11.47;;
16800;SDS011;8518;53.236;10.384;2023-04-08T00:56:36;13.57;;;11.27;;
16800;SDS011;8518;53.236;10.384;2023-04-08T00:59:02;15.90;;;11.30;;
16800;SDS011;8518;53.236;10.384;2023-04-08T01:07:31;12.77;;;9.37;;
16800;SDS011;8518;53.236;10.384;2023-04-08T01:13:24;14.17;;;9.47;;
16800;SDS011;8518;53.236;10.384;2023-04-08T01:15:53;11.90;;;9.47;;
16800;SDS011;8518;53.236;10.384;2023-04-08T01:18:20;11.73;;;8.87;;
16800;SDS011;8518;53.236;10.384;2023-04-08T01:20:47;14.23;;;9.43;;
16800;SDS011;8518;53.236;10.384;2023-04-08T01:26:36;12.77;;;9.60;;
16800;SDS011;8518;53.236;10.384;2023-04-08T01:29:03;14.70;;;9.27;;
16800;SDS011;8518;53.236;10.384;2023-04-08T01:31:29;11.53;;;9.07;;
16800;SDS011;8518;53.236;10.384;2023-04-08T01:37:18;12.30;;;9.00;;
16800;SDS011;8518;53.236;10.384;2023-04-08T01:39:46;14.33;;;9.30;;
16800;SDS011;8518;53.236;10.384;2023-04-08T01:42:13;11.47;;;8.80;;
16800;SDS011;8518;53.236;10.384;2023-04-08T01:44:39;11.93;;;9.33;;
16800;SDS011;8518;53.236;10.384;2023-04-08T01:47:06;12.20;;;9.33;;
16800;SDS011;8518;53.236;10.384;2023-04-08T01:49:33;10.40;;;8.70;;
16800;SDS011;8518;53.236;10.384;2023-04-08T01:52:00;13.73;;;9.23;;
16800;SDS011;8518;53.236;10.384;2023-04-08T01:54:26;13.57;;;8.83;;
16800;SDS011;8518;53.236;10.384;2023-04-08T01:56:52;11.70;;;9.23;;
16800;SDS011;8518;53.236;10.384;2023-04-08T01:59:21;12.23;;;9.00;;
16800;SDS011;8518;53.236;10.384;2023-04-08T02:01:51;10.97;;;8.70;;
16800;SDS011;8518;53.236;10.384;2023-04-08T02:07:39;11.27;;;8.47;;
16800;SDS011;8518;53.236;10.384;2023-04-08T02:10:05;12.73;;;9.20;;
16800;SDS011;8518;53.236;10.384;2023-04-08T02:15:56;12.60;;;7.80;;
16800;SDS011;8518;53.236;10.384;2023-04-08T02:18:28;11.07;;;8.93;;
16800;SDS011;8518;53.236;10.384;2023-04-08T02:21:07;11.30;;;8.87;;
16800;SDS011;8518;53.236;10.384;2023-04-08T02:26:59;12.80;;;9.00;;
16800;SDS011;8518;53.236;10.384;2023-04-08T02:32:47;12.33;;;8.70;;
16800;SDS011;8518;53.236;10.384;2023-04-08T02:35:15;11.03;;;8.50;;
16800;SDS011;8518;53.236;10.384;2023-04-08T02:37:43;10.20;;;8.00;;
16800;SDS011;8518;53.236;10.384;2023-04-08T02:40:43;11.57;;;8.63;;
16800;SDS011;8518;53.236;10.384;2023-04-08T02:46:24;12.03;;;9.03;;
16800;SDS011;8518;53.236;10.384;2023-04-08T02:48:49;12.47;;;9.33;;
16800;SDS011;8518;53.236;10.384;2023-04-08T02:51:15;11.23;;;8.77;;
16800;SDS011;8518;53.236;10.384;2023-04-08T02:53:41;11.63;;;8.80;;
16800;SDS011;8518;53.236;10.384;2023-04-08T02:56:11;12.10;;;9.40;;
16800;SDS011;8518;53.236;10.384;2023-04-08T02:58:36;11.83;;;9.57;;
16800;SDS011;8518;53.236;10.384;2023-04-08T03:01:02;12.57;;;9.60;;
16800;SDS011;8518;53.236;10.384;2023-04-08T03:06:50;11.77;;;9.57;;
16800;SDS011;8518;53.236;10.384;2023-04-08T03:09:15;12.63;;;9.17;;
16800;SDS011;8518;53.236;10.384;2023-04-08T03:11:41;12.37;;;9.27;;
16800;SDS011;8518;53.236;10.384;2023-04-08T03:17:30;13.13;;;9.97;;
16800;SDS011;8518;53.236;10.384;2023-04-08T03:19:58;13.70;;;10.40;;
16800;SDS011;8518;53.236;10.384;2023-04-08T03:22:24;12.23;;;9.63;;
16800;SDS011;8518;53.236;10.384;2023-04-08T03:24:50;14.00;;;9.83;;
16800;SDS011;8518;53.236;10.384;2023-04-08T03:27:15;12.77;;;9.87;;
16800;SDS011;8518;53.236;10.384;2023-04-08T03:29:41;14.33;;;10.20;;
16800;SDS011;8518;53.236;10.384;2023-04-08T03:32:07;12.60;;;9.83;;
16800;SDS011;8518;53.236;10.384;2023-04-08T03:34:33;12.90;;;10.43;;
16800;SDS011;8518;53.236;10.384;2023-04-08T03:36:59;13.23;;;10.47;;
16800;SDS011;8518;53.236;10.384;2023-04-08T03:39:25;13.33;;;10.30;;
16800;SDS011;8518;53.236;10.384;2023-04-08T03:41:51;13.90;;;9.73;;
16800;SDS011;8518;53.236;10.384;2023-04-08T03:47:39;13.37;;;9.60;;
16800;SDS011;8518;53.236;10.384;2023-04-08T03:50:05;12.13;;;9.30;;
16800;SDS011;8518;53.236;10.384;2023-04-08T03:52:31;14.93;;;10.77;;
16800;SDS011;8518;53.236;10.384;2023-04-08T03:54:56;15.53;;;10.73;;
16800;SDS011;8518;53.236;10.384;2023-04-08T03:57:22;14.37;;;10.43;;
16800;SDS011;8518;53.236;10.384;2023-04-08T03:59:48;13.60;;;9.83;;
16800;SDS011;8518;53.236;10.384;2023-04-08T04:02:13;15.50;;;11.13;;
16800;SDS011;8518;53.236;10.384;2023-04-08T04:04:39;14.50;;;11.07;;
16800;SDS011;8518;53.236;10.384;2023-04-08T04:07:04;17.77;;;12.07;;
16800;SDS011;8518;53.236;10.384;2023-04-08T04:09:30;18.20;;;11.70;;
16800;SDS011;8518;53.236;10.384;2023-04-08T04:11:56;20.67;;;12.50;;
16800;SDS011;8518;53.236;10.384;2023-04-08T04:17:46;15.93;;;11.27;;
16800;SDS011;8518;53.236;10.384;2023-04-08T04:20:13;14.60;;;11.03;;
16800;SDS011;8518;53.236;10.384;2023-04-08T04:26:00;17.57;;;11.97;;
16800;SDS011;8518;53.236;10.384;2023-04-08T04:28:26;18.50;;;13.07;;
16800;SDS011;8518;53.236;10.384;2023-04-08T04:30:52;16.60;;;12.00;;
16800;SDS011;8518;53.236;10.384;2023-04-08T04:36:39;14.57;;;11.00;;
16800;SDS011;8518;53.236;10.384;2023-04-08T04:39:05;14.33;;;10.57;;
16800;SDS011;8518;53.236;10.384;2023-04-08T04:41:31;16.17;;;12.07;;
16800;SDS011;8518;53.236;10.384;2023-04-08T04:47:18;15.17;;;11.47;;
16800;SDS011;8518;53.236;10.384;2023-04-08T04:49:44;14.07;;;11.47;;
16800;SDS011;8518;53.236;10.384;2023-04-08T04:52:10;13.47;;;10.93;;
16800;SDS011;8518;53.236;10.384;2023-04-08T04:54:36;15.23;;;10.53;;
16800;SDS011;8518;53.236;10.384;2023-04-08T04:57:01;15.77;;;11.47;;
16800;SDS011;8518;53.236;10.384;2023-04-08T04:59:27;13.23;;;10.83;;
16800;SDS011;8518;53.236;10.384;2023-04-08T05:01:52;14.00;;;10.37;;
16800;SDS011;8518;53.236;10.384;2023-04-08T05:07:43;13.67;;;10.90;;
16800;SDS011;8518;53.236;10.384;2023-04-08T05:10:11;13.40;;;11.57;;
16800;SDS011;8518;53.236;10.384;2023-04-08T05:15:59;15.07;;;11.50;;
16800;SDS011;8518;53.236;10.384;2023-04-08T05:18:25;15.23;;;10.80;;
16800;SDS011;8518;53.236;10.384;2023-04-08T05:20:50;15.77;;;11.83;;
16800;SDS011;8518;53.236;10.384;2023-04-08T05:26:38;14.70;;;10.87;;
16800;SDS011;8518;53.236;10.384;2023-04-08T05:29:04;14.07;;;10.83;;
16800;SDS011;8518;53.236;10.384;2023-04-08T05:31:30;14.07;;;11.70;;
16800;SDS011;8518;53.236;10.384;2023-04-08T05:37:17;14.63;;;11.07;;
16800;SDS011;8518;53.236;10.384;2023-04-08T05:43:05;12.60;;;10.53;;
16800;SDS011;8518;53.236;10.384;2023-04-08T05:45:30;15.50;;;11.77;;
16800;SDS011;8518;53.236;10.384;2023-04-08T05:47:56;17.80;;;12.40;;
16800;SDS011;8518;53.236;10.384;2023-04-08T05:50:24;15.53;;;12.00;;
16800;SDS011;8518;53.236;10.384;2023-04-08T05:52:56;17.17;;;12.83;;
16800;SDS011;8518;53.236;10.384;2023-04-08T05:55:25;15.00;;;11.63;;
16800;SDS011;8518;53.236;10.384;2023-04-08T05:57:51;14.57;;;11.60;;
16800;SDS011;8518;53.236;10.384;2023-04-08T06:00:16;15.03;;;11.33;;
16800;SDS011;8518;53.236;10.384;2023-04-08T06:06:10;14.90;;;11.30;;
16800;SDS011;8518;53.236;10.384;2023-04-08T06:08:36;16.80;;;11.67;;
16800;SDS011;8518;53.236;10.384;2023-04-08T06:11:02;16.20;;;11.87;;
16800;SDS011;8518;53.236;10.384;2023-04-08T06:16:52;16.07;;;12.10;;
16800;SDS011;8518;53.236;10.384;2023-04-08T06:22:42;17.37;;;12.27;;
16800;SDS011;8518;53.236;10.384;2023-04-08T06:25:08;17.50;;;11.87;;
16800;SDS011;8518;53.236;10.384;2023-04-08T06:27:37;16.73;;;12.33;;
16800;SDS011;8518;53.236;10.384;2023-04-08T06:30:02;17.37;;;11.13;;
16800;SDS011;8518;53.236;10.384;2023-04-08T06:35:50;16.80;;;11.90;;
16800;SDS011;8518;53.236;10.384;2023-04-08T06:38:16;17.37;;;12.00;;
16800;SDS011;8518;53.236;10.384;2023-04-08T06:40:41;17.37;;;12.27;;
16800;SDS011;8518;53.236;10.384;2023-04-08T06:46:29;17.90;;;12.37;;
16800;SDS011;8518;53.236;10.384;2023-04-08T06:48:55;14.60;;;11.27;;
16800;SDS011;8518;53.236;10.384;2023-04-08T06:51:20;16.70;;;10.97;;
16800;SDS011;8518;53.236;10.384;2023-04-08T06:53:46;15.10;;;11.10;;
16800;SDS011;8518;53.236;10.384;2023-04-08T06:56:12;14.57;;;11.00;;
16800;SDS011;8518;53.236;10.384;2023-04-08T06:58:37;14.53;;;10.80;;
16800;SDS011;8518;53.236;10.384;2023-04-08T07:01:03;18.20;;;12.83;;
16800;SDS011;8518;53.236;10.384;2023-04-08T07:06:51;13.73;;;10.83;;
16800;SDS011;8518;53.236;10.384;2023-04-08T07:09:17;13.43;;;10.20;;
16800;SDS011;8518;53.236;10.384;2023-04-08T07:11:42;17.00;;;11.10;;
16800;SDS011;8518;53.236;10.384;2023-04-08T07:17:30;15.60;;;11.47;;
16800;SDS011;8518;53.236;10.384;2023-04-08T07:19:56;15.13;;;11.47;;
16800;SDS011;8518;53.236;10.384;2023-04-08T07:22:22;14.60;;;10.63;;
16800;SDS011;8518;53.236;10.384;2023-04-08T07:24:47;16.10;;;10.50;;
16800;SDS011;8518;53.236;10.384;2023-04-08T07:27:14;14.03;;;10.67;;
16800;SDS011;8518;53.236;10.384;2023-04-08T07:29:40;15.77;;;10.73;;
16800;SDS011;8518;53.236;10.384;2023-04-08T07:32:06;16.57;;;11.87;;
16800;SDS011;8518;53.236;10.384;2023-04-08T07:34:33;13.40;;;9.87;;
16800;SDS011;8518;53.236;10.384;2023-04-08T07:37:00;14.17;;;10.27;;
16800;SDS011;8518;53.236;10.384;2023-04-08T07:39:25;15.17;;;10.23;;
16800;SDS011;8518;53.236;10.384;2023-04-08T07:41:51;15.40;;;10.47;;
16800;SDS011;8518;53.236;10.384;2023-04-08T07:47:39;12.57;;;9.93;;
16800;SDS011;8518;53.236;10.384;2023-04-08T07:50:05;14.47;;;10.47;;
16800;SDS011;8518;53.236;10.384;2023-04-08T07:52:32;13.20;;;10.60;;
16800;SDS011;8518;53.236;10.384;2023-04-08T07:54:58;16.60;;;11.57;;
16800;SDS011;8518;53.236;10.384;2023-04-08T07:57:26;17.10;;;11.13;;
16800;SDS011;8518;53.236;10.384;2023-04-08T07:59:51;18.87;;;11.17;;
16800;SDS011;8518;53.236;10.384;2023-04-08T08:02:20;17.10;;;11.00;;
16800;SDS011;8518;53.236;10.384;2023-04-08T08:04:46;18.40;;;10.50;;
16800;SDS011;8518;53.236;10.384;2023-04-08T08:07:11;16.47;;;11.03;;
16800;SDS011;8518;53.236;10.384;2023-04-08T08:09:37;20.07;;;11.77;;
16800;SDS011;8518;53.236;10.384;2023-04-08T08:12:02;18.30;;;11.77;;
16800;SDS011;8518;53.236;10.384;2023-04-08T08:14:28;16.33;;;11.10;;
16800;SDS011;8518;53.236;10.384;2023-04-08T08:16:54;18.57;;;11.97;;
16800;SDS011;8518;53.236;10.384;2023-04-08T08:19:20;16.90;;;12.10;;
16800;SDS011;8518;53.236;10.384;2023-04-08T08:21:46;19.37;;;12.70;;
16800;SDS011;8518;53.236;10.384;2023-04-08T08:27:34;17.97;;;11.43;;
16800;SDS011;8518;53.236;10.384;2023-04-08T08:30:00;14.33;;;10.30;;
16800;SDS011;8518;53.236;10.384;2023-04-08T08:35:49;17.60;;;10.97;;
16800;SDS011;8518;53.236;10.384;2023-04-08T08:38:15;17.23;;;11.80;;
16800;SDS011;8518;53.236;10.384;2023-04-08T08:40:41;14.27;;;11.53;;
16800;SDS011;8518;53.236;10.384;2023-04-08T08:46:30;19.70;;;11.13;;
16800;SDS011;8518;53.236;10.384;2023-04-08T08:48:55;16.37;;;11.53;;
16800;SDS011;8518;53.236;10.384;2023-04-08T08:51:21;18.17;;;11.77;;
16800;SDS011;8518;53.236;10.384;2023-04-08T08:53:48;15.00;;;11.43;;
16800;SDS011;8518;53.236;10.384;2023-04-08T08:56:13;18.57;;;12.27;;
16800;SDS011;8518;53.236;10.384;2023-04-08T08:58:39;17.00;;;11.73;;
16800;SDS011;8518;53.236;10.384;2023-04-08T09:07:22;15.83;;;10.53;;
16800;SDS011;8518;53.236;10.384;2023-04-08T09:13:12;13.60;;;10.47;;
16800;SDS011;8518;53.236;10.384;2023-04-08T09:15:48;12.87;;;10.10;;
16800;SDS011;8518;53.236;10.384;2023-04-08T09:18:30;14.80;;;10.57;;
16800;SDS011;8518;53.236;10.384;2023-04-08T09:21:00;15.37;;;11.10;;
16800;SDS011;8518;53.236;10.384;2023-04-08T09:26:49;17.57;;;11.43;;
16800;SDS011;8518;53.236;10.384;2023-04-08T09:32:50;16.27;;;11.73;;
16800;SDS011;8518;53.236;10.384;2023-04-08T09:35:19;17.67;;;11.73;;
16800;SDS011;8518;53.236;10.384;2023-04-08T09:37:45;19.30;;;12.43;;
16800;SDS011;8518;53.236;10.384;2023-04-08T09:40:11;20.17;;;11.90;;
16800;SDS011;8518;53.236;10.384;2023-04-08T09:46:01;18.27;;;12.57;;
16800;SDS011;8518;53.236;10.384;2023-04-08T09:48:31;17.33;;;12.17;;
16800;SDS011;8518;53.236;10.384;2023-04-08T09:51:06;18.77;;;11.90;;
16800;SDS011;8518;53.236;10.384;2023-04-08T09:53:37;17.83;;;12.80;;
16800;SDS011;8518;53.236;10.384;2023-04-08T09:56:07;20.00;;;12.63;;
16800;SDS011;8518;53.236;10.384;2023-04-08T09:59:21;17.50;;;12.57;;
16800;SDS011;8518;53.236;10.384;2023-04-08T10:01:25;18.93;;;12.93;;
16800;SDS011;8518;53.236;10.384;2023-04-08T10:07:28;21.00;;;13.00;;
16800;SDS011;8518;53.236;10.384;2023-04-08T10:09:53;20.03;;;13.40;;
16800;SDS011;8518;53.236;10.384;2023-04-08T10:12:21;20.43;;;12.77;;
16800;SDS011;8518;53.236;10.384;2023-04-08T10:17:54;16.67;;;12.17;;
16800;SDS011;8518;53.236;10.384;2023-04-08T10:20:44;18.07;;;12.67;;
16800;SDS011;8518;53.236;10.384;2023-04-08T10:26:36;14.37;;;11.00;;
16800;SDS011;8518;53.236;10.384;2023-04-08T10:31:41;16.07;;;11.30;;
16800;SDS011;8518;53.236;10.384;2023-04-08T10:37:30;14.40;;;10.47;;
16800;SDS011;8518;53.236;10.384;2023-04-08T10:39:56;16.23;;;11.13;;
16800;SDS011;8518;53.236;10.384;2023-04-08T10:42:25;15.47;;;11.57;;
16800;SDS011;8518;53.236;10.384;2023-04-08T10:44:58;16.07;;;11.90;;
16800;SDS011;8518;53.236;10.384;2023-04-08T10:47:25;14.27;;;11.17;;
16800;SDS011;8518;53.236;10.384;2023-04-08T10:49:52;16.37;;;12.17;;
16800;SDS011;8518;53.236;10.384;2023-04-08T10:52:17;18.27;;;12.30;;
16800;SDS011;8518;53.236;10.384;2023-04-08T10:54:47;17.60;;;11.93;;
16800;SDS011;8518;53.236;10.384;2023-04-08T10:57:25;17.67;;;12.30;;
16800;SDS011;8518;53.236;10.384;2023-04-08T10:59:54;17.93;;;12.20;;
16800;SDS011;8518;53.236;10.384;2023-04-08T11:02:20;19.03;;;13.10;;
16800;SDS011;8518;53.236;10.384;2023-04-08T11:04:47;20.07;;;11.97;;
16800;SDS011;8518;53.236;10.384;2023-04-08T11:07:12;16.70;;;12.27;;
16800;SDS011;8518;53.236;10.384;2023-04-08T11:09:42;17.60;;;11.63;;
16800;SDS011;8518;53.236;10.384;2023-04-08T11:12:16;17.93;;;12.10;;
16800;SDS011;8518;53.236;10.384;2023-04-08T11:14:42;18.43;;;12.20;;
16800;SDS011;8518;53.236;10.384;2023-04-08T11:17:08;17.90;;;12.23;;
16800;SDS011;8518;53.236;10.384;2023-04-08T11:19:34;18.10;;;11.30;;
16800;SDS011;8518;53.236;10.384;2023-04-08T11:22:01;13.80;;;10.63;;
16800;SDS011;8518;53.236;10.384;2023-04-08T11:24:27;15.63;;;10.70;;
16800;SDS011;8518;53.236;10.384;2023-04-08T11:26:55;14.13;;;10.30;;
16800;SDS011;8518;53.236;10.384;2023-04-08T11:29:21;13.93;;;9.60;;
16800;SDS011;8518;53.236;10.384;2023-04-08T11:31:47;15.33;;;10.40;;
16800;SDS011;8518;53.236;10.384;2023-04-08T11:37:38;13.97;;;10.50;;
16800;SDS011;8518;53.236;10.384;2023-04-08T11:40:08;16.83;;;10.73;;
16800;SDS011;8518;53.236;10.384;2023-04-08T11:45:58;16.10;;;10.70;;
16800;SDS011;8518;53.236;10.384;2023-04-08T11:48:24;14.17;;;10.17;;
16800;SDS011;8518;53.236;10.384;2023-04-08T11:51:01;14.93;;;10.27;;
16800;SDS011;8518;53.236;10.384;2023-04-08T11:53:33;16.17;;;11.30;;
16800;SDS011;8518;53.236;10.384;2023-04-08T11:56:14;18.77;;;11.23;;
16800;SDS011;8518;53.236;10.384;2023-04-08T11:58:41;15.77;;;11.47;;
16800;SDS011;8518;53.236;10.384;2023-04-08T12:01:13;14.23;;;10.77;;
16800;SDS011;8518;53.236;10.384;2023-04-08T12:07:01;15.90;;;11.43;;
16800;SDS011;8518;53.236;10.384;2023-04-08T12:12:53;17.73;;;11.80;;
16800;SDS011;8518;53.236;10.384;2023-04-08T12:15:19;15.87;;;11.17;;
16800;SDS011;8518;53.236;10.384;2023-04-08T12:17:44;17.50;;;12.40;;
16800;SDS011;8518;53.236;10.384;2023-04-08T12:20:11;16.43;;;12.83;;
16800;SDS011;8518;53.236;10.384;2023-04-08T12:25:58;17.00;;;12.70;;
16800;SDS011;8518;53.236;10.384;2023-04-08T12:28:24;16.20;;;12.80;;
16800;SDS011;8518;53.236;10.384;2023-04-08T12:30:50;19.47;;;13.10;;
16800;SDS011;8518;53.236;10.384;2023-04-08T12:36:37;19.63;;;13.10;;
16800;SDS011;8518;53.236;10.384;2023-04-08T12:39:03;17.60;;;12.17;;
16800;SDS011;8518;53.236;10.384;2023-04-08T12:41:29;16.63;;;12.90;;
16800;SDS011;8518;53.236;10.384;2023-04-08T12:47:16;20.70;;;12.70;;
16800;SDS011;8518;53.236;10.384;2023-04-08T12:49:43;19.57;;;12.53;;
16800;SDS011;8518;53.236;10.384;2023-04-08T12:52:08;16.97;;;11.93;;
16800;SDS011;8518;53.236;10.384;2023-04-08T12:54:34;17.83;;;13.03;;
16800;SDS011;8518;53.236;10.384;2023-04-08T12:56:59;20.17;;;12.53;;
16800;SDS011;8518;53.236;10.384;2023-04-08T12:59:25;19.20;;;13.03;;
16800;SDS011;8518;53.236;10.384;2023-04-08T13:01:51;17.47;;;12.77;;
16800;SDS011;8518;53.236;10.384;2023-04-08T13:07:41;17.73;;;11.97;;
16800;SDS011;8518;53.236;10.384;2023-04-08T13:10:07;19.20;;;12.80;;
16800;SDS011;8518;53.236;10.384;2023-04-08T13:15:55;20.43;;;12.90;;
16800;SDS011;8518;53.236;10.384;2023-04-08T13:18:21;16.87;;;11.70;;
16800;SDS011;8518;53.236;10.384;2023-04-08T13:20:47;16.10;;;12.40;;
16800;SDS011;8518;53.236;10.384;2023-04-08T13:26:34;15.67;;;11.30;;
16800;SDS011;8518;53.236;10.384;2023-04-08T13:29:00;17.20;;;11.97;;
16800;SDS011;8518;53.236;10.384;2023-04-08T13:31:25;18.40;;;12.17;;
16800;SDS011;8518;53.236;10.384;2023-04-08T13:37:13;13.53;;;10.30;;
16800;SDS011;8518;53.236;10.384;2023-04-08T13:43:01;15.37;;;11.20;;
16800;SDS011;8518;53.236;10.384;2023-04-08T13:45:27;15.73;;;11.63;;
16800;SDS011;8518;53.236;10.384;2023-04-08T13:47:52;14.93;;;10.30;;
16800;SDS011;8518;53.236;10.384;2023-04-08T13:50:18;14.30;;;10.70;;
16800;SDS011;8518;53.236;10.384;2023-04-08T13:52:44;15.47;;;10.70;;
16800;SDS011;8518;53.236;10.384;2023-04-08T13:55:10;13.07;;;10.37;;
16800;SDS011;8518;53.236;10.384;2023-04-08T13:57:36;16.80;;;10.23;;
16800;SDS011;8518;53.236;10.384;2023-04-08T14:00:01;11.87;;;9.87;;
16800;SDS011;8518;53.236;10.384;2023-04-08T14:05:50;13.83;;;10.50;;
16800;SDS011;8518;53.236;10.384;2023-04-08T14:08:16;15.57;;;10.50;;
16800;SDS011;8518;53.236;10.384;2023-04-08T14:10:48;14.67;;;10.50;;
16800;SDS011;8518;53.236;10.384;2023-04-08T14:16:41;13.80;;;11.10;;
16800;SDS011;8518;53.236;10.384;2023-04-08T14:19:07;12.73;;;9.93;;
16800;SDS011;8518;53.236;10.384;2023-04-08T14:21:33;14.00;;;10.30;;
16800;SDS011;8518;53.236;10.384;2023-04-08T14:27:21;15.23;;;9.67;;
16800;SDS011;8518;53.236;10.384;2023-04-08T14:29:46;14.33;;;10.17;;
16800;SDS011;8518;53.236;10.384;2023-04-08T14:32:12;12.33;;;9.73;;
16800;SDS011;8518;53.236;10.384;2023-04-08T14:34:38;13.63;;;10.80;;
16800;SDS011;8518;53.236;10.384;2023-04-08T14:37:03;15.07;;;10.97;;
16800;SDS011;8518;53.236;10.384;2023-04-08T14:39:29;13.13;;;9.97;;
16800;SDS011;8518;53.236;10.384;2023-04-08T14:41:54;14.27;;;10.27;;
16800;SDS011;8518;53.236;10.384;2023-04-08T14:47:44;14.17;;;10.53;;
16800;SDS011;8518;53.236;10.384;2023-04-08T14:50:10;13.47;;;10.23;;
16800;SDS011;8518;53.236;10.384;2023-04-08T14:52:35;14.07;;;10.47;;
16800;SDS011;8518;53.236;10.384;2023-04-08T14:55:01;15.87;;;11.20;;
16800;SDS011;8518;53.236;10.384;2023-04-08T14:57:27;15.17;;;10.93;;
16800;SDS011;8518;53.236;10.384;2023-04-08T14:59:52;17.50;;;11.47;;
16800;SDS011;8518;53.236;10.384;2023-04-08T15:02:18;16.07;;;11.20;;
16800;SDS011;8518;53.236;10.384;2023-04-08T15:04:44;13.33;;;10.47;;
16800;SDS011;8518;53.236;10.384;2023-04-08T15:07:09;16.37;;;11.67;;
16800;SDS011;8518;53.236;10.384;2023-04-08T15:09:35;15.70;;;11.13;;
16800;SDS011;8518;53.236;10.384;2023-04-08T15:12:01;14.67;;;11.63;;
16800;SDS011;8518;53.236;10.384;2023-04-08T15:14:27;17.00;;;11.70;;
16800;SDS011;8518;53.236;10.384;2023-04-08T15:16:55;16.83;;;12.10;;
16800;SDS011;8518;53.236;10.384;2023-04-08T15:19:21;15.60;;;12.00;;
16800;SDS011;8518;53.236;10.384;2023-04-08T15:21:47;17.77;;;12.83;;
16800;SDS011;8518;53.236;10.384;2023-04-08T15:27:35;18.03;;;12.97;;
16800;SDS011;8518;53.236;10.384;2023-04-08T15:30:02;18.50;;;12.93;;
16800;SDS011;8518;53.236;10.384;2023-04-08T15:35:51;17.47;;;12.50;;
16800;SDS011;8518;53.236;10.384;2023-04-08T15:38:16;18.87;;;13.83;;
16800;SDS011;8518;53.236;10.384;2023-04-08T15:40:42;17.37;;;13.33;;
16800;SDS011;8518;53.236;10.384;2023-04-08T15:46:30;22.10;;;13.73;;
16800;SDS011;8518;53.236;10.384;2023-04-08T15:48:56;22.50;;;15.80;;
16800;SDS011;8518;53.236;10.384;2023-04-08T15:51:21;21.53;;;16.13;;
16800;SDS011;8518;53.236;10.384;2023-04-08T15:53:47;21.27;;;16.00;;
16800;SDS011;8518;53.236;10.384;2023-04-08T15:56:14;22.57;;;16.50;;
16800;SDS011;8518;53.236;10.384;2023-04-08T15:58:42;27.63;;;17.97;;
16800;SDS011;8518;53.236;10.384;2023-04-08T16:01:08;21.87;;;17.40;;
16800;SDS011;8518;53.236;10.384;2023-04-08T16:06:56;26.77;;;18.87;;
16800;SDS011;8518;53.236;10.384;2023-04-08T16:12:44;26.73;;;19.47;;
16800;SDS011;8518;53.236;10.384;2023-04-08T16:15:10;30.37;;;20.97;;
16800;SDS011;8518;53.236;10.384;2023-04-08T16:17:36;32.63;;;21.20;;
16800;SDS011;8518;53.236;10.384;2023-04-08T16:20:01;27.60;;;19.67;;
16800;SDS011;8518;53.236;10.384;2023-04-08T16:25:49;27.77;;;19.23;;
16800;SDS011;8518;53.236;10.384;2023-04-08T16:28:15;30.30;;;19.60;;
16800;SDS011;8518;53.236;10.384;2023-04-08T16:30:42;31.37;;;21.57;;
16800;SDS011;8518;53.236;10.384;2023-04-08T16:36:32;35.70;;;23.03;;
16800;SDS011;8518;53.236;10.384;2023-04-08T16:38:57;37.20;;;23.83;;
16800;SDS011;8518;53.236;10.384;2023-04-08T16:41:23;37.00;;;22.53;;
16800;SDS011;8518;53.236;10.384;2023-04-08T16:47:12;34.80;;;22.33;;
16800;SDS011;8518;53.236;10.384;2023-04-08T16:49:37;37.73;;;23.43;;
16800;SDS011;8518;53.236;10.384;2023-04-08T16:52:03;34.77;;;23.57;;
16800;SDS011;8518;53.236;10.384;2023-04-08T16:54:29;36.67;;;22.90;;
16800;SDS011;8518;53.236;10.384;2023-04-08T16:56:55;41.03;;;24.67;;
16800;SDS011;8518;53.236;10.384;2023-04-08T16:59:20;39.80;;;24.33;;
16800;SDS011;8518;53.236;10.384;2023-04-08T17:01:46;37.67;;;24.67;;
16800;SDS011;8518;53.236;10.384;2023-04-08T17:07:35;45.97;;;27.63;;
16800;SDS011;8518;53.236;10.384;2023-04-08T17:10:01;43.33;;;26.17;;
16800;SDS011;8518;53.236;10.384;2023-04-08T17:15:49;42.63;;;25.27;;
16800;SDS011;8518;53.236;10.384;2023-04-08T17:18:15;43.33;;;25.23;;
16800;SDS011;8518;53.236;10.384;2023-04-08T17:20:40;44.77;;;25.90;;
16800;SDS011;8518;53.236;10.384;2023-04-08T17:26:30;41.90;;;25.40;;
16800;SDS011;8518;53.236;10.384;2023-04-08T17:28:56;49.77;;;26.77;;
16800;SDS011;8518;53.236;10.384;2023-04-08T17:31:21;42.20;;;26.47;;
16800;SDS011;8518;53.236;10.384;2023-04-08T17:37:09;70.07;;;41.53;;
16800;SDS011;8518;53.236;10.384;2023-04-08T17:39:37;54.13;;;33.67;;
16800;SDS011;8518;53.236;10.384;2023-04-08T17:42:05;54.47;;;33.13;;
16800;SDS011;8518;53.236;10.384;2023-04-08T17:44:31;47.53;;;28.43;;
16800;SDS011;8518;53.236;10.384;2023-04-08T17:46:57;49.83;;;26.33;;
16800;SDS011;8518;53.236;10.384;2023-04-08T17:49:23;49.87;;;27.53;;
16800;SDS011;8518;53.236;10.384;2023-04-08T17:51:49;41.87;;;26.17;;
16800;SDS011;8518;53.236;10.384;2023-04-08T17:54:15;43.73;;;26.20;;
16800;SDS011;8518;53.236;10.384;2023-04-08T17:56:41;50.10;;;30.27;;
16800;SDS011;8518;53.236;10.384;2023-04-08T17:59:07;50.10;;;28.67;;
16800;SDS011;8518;53.236;10.384;2023-04-08T18:01:33;58.60;;;35.03;;
16800;SDS011;8518;53.236;10.384;2023-04-08T18:07:23;60.10;;;33.33;;
16800;SDS011;8518;53.236;10.384;2023-04-08T18:09:48;51.63;;;30.67;;
16800;SDS011;8518;53.236;10.384;2023-04-08T18:12:14;47.83;;;30.20;;
16800;SDS011;8518;53.236;10.384;2023-04-08T18:14:39;46.60;;;29.63;;
16800;SDS011;8518;53.236;10.384;2023-04-08T18:17:05;47.37;;;27.07;;
16800;SDS011;8518;53.236;10.384;2023-04-08T18:19:48;49.97;;;29.07;;
16800;SDS011;8518;53.236;10.384;2023-04-08T18:22:16;52.80;;;28.23;;
16800;SDS011;8518;53.236;10.384;2023-04-08T18:24:42;49.17;;;28.83;;
16800;SDS011;8518;53.236;10.384;2023-04-08T18:27:07;48.37;;;27.83;;
16800;SDS011;8518;53.236;10.384;2023-04-08T18:29:33;49.37;;;29.07;;
16800;SDS011;8518;53.236;10.384;2023-04-08T18:32:00;50.03;;;28.60;;
16800;SDS011;8518;53.236;10.384;2023-04-08T18:34:26;47.90;;;28.03;;
16800;SDS011;8518;53.236;10.384;2023-04-08T18:36:51;48.47;;;27.57;;
16800;SDS011;8518;53.236;10.384;2023-04-08T18:39:17;48.20;;;28.60;;
16800;SDS011;8518;53.236;10.384;2023-04-08T18:41:43;48.73;;;29.23;;